Lester B. Pearson International Airport
CYYZ : now visible

Airfield :











YOU CAN JOIN US ON...

 
LOGIN :

Register | Disclaimer

   EN    FR    IT 

 









Legend :    VFR   Marginal VFR   IFR   Intensive IFR   Very Intensive IFR
Visi :
Ceiling :
>= 8 km
>= 3000ft
5 to 8 km
1000 to 3000 ft
1500m to 5 km
500 to 1000 ft
800 to 1500m
200 to 500 ft
< 800m
< 200 ft
Symbols :   Thunderstorms  Fog  Heavy snow  Heavy precipitations  Wind > 20 kt







- Airport Elevation : 569 ft
- IATA code : YYZ


CYYZ - Lester B. Pearson International

CURRENT METAR :
  • 221800Z 16008KT 110V170 15SM FEW110 BKN160 BKN240 14/09 A3022 RMK AC2AC3CC1 SLP237

EXPIRED METARs :
  • 221700Z 13006KT 15SM SCT095 BKN120 14/08 A3023 RMK AC3AC3 SLP241
  • 221600Z VRB04KT 15SM FEW020 FEW095 BKN160 14/11 A3024 RMK CU1AC2AC3 CU TR SLP245

TAF TAF CYYZ
Valid from the 22 at 18:00 until the 24 at 00:00 UTC


221740Z 2218/2324 13006KT P6SM SCT120
TEMPO 2218/2224 BKN120
FM230000 10005KT P6SM FEW140
PROB30 2309/2313 2SM BR
FM231400 14010KT P6SM SCT030 BKN080
TEMPO 2314/2320 P6SM -SHRA BKN030 OVC080
PROB30 2315/2320 2SM TSRA BR BKN030CB OVC080
FM232000 27018G28KT P6SM FEW020 OVC030 RMK NXT FCST BY 222100Z
CZYZ FIR / North America



MET'MAP, your aeronautical weather chart ! - Copyright ORBIFLY December 2007 - Disclaimer

ORBIFLY MET'MAP TEAM :

Programming & Development : Alexandra Zaïnal
Concept & Development : Baudouin d'Aumeries
Co-Development & Prog : Marc-Olivier Méhu
Technical & hardware support : Manuel Goepfert

Contact : metmap@orbifly.com




SOURCES & CREDITS :

   NOAA       Earth
Advisory